Time;durP1;ratioP1;P1;durP2;ratioP2;P2;SDS_P1;SDS_P2;PMS_P1;PMS_P2;Temp;Humidity;BMP_temperature;BMP_pressure;BME280_temperature;BME280_humidity;BME280_pressure;Samples;Min_cycle;Max_cycle;Signal;HPM_P1;HPM_P2
2021/12/23 00:02:22;;;;;;;25.58;15.85;;;-1.80;99.90;;;;;;5001378;28;20122;-66
2021/12/23 00:04:47;;;;;;;24.10;16.50;;;-1.80;99.90;;;;;;5019244;28;20092;-67
2021/12/23 00:07:13;;;;;;;25.35;16.20;;;-1.80;99.90;;;;;;5001763;28;20412;-67
2021/12/23 00:12:16;;;;;;;29.70;16.52;;;-1.70;99.90;;;;;;5001231;28;20065;-67
2021/12/23 00:14:42;;;;;;;25.83;16.67;;;-1.80;99.90;;;;;;5018350;28;20054;-65
2021/12/23 00:17:22;;;;;;;27.42;17.10;;;-1.70;99.90;;;;;;5000949;28;20119;-68
2021/12/23 00:23:21;;;;;;;25.27;17.40;;;-1.60;99.90;;;;;;5018559;28;20053;-67
2021/12/23 00:25:18;;;;;;;30.15;16.83;;;-1.60;99.90;;;;;;5000768;28;20136;-68
2021/12/23 00:27:44;;;;;;;29.38;16.95;;;-1.60;99.90;;;;;;5017972;28;20085;-66
2021/12/23 00:30:10;;;;;;;29.17;18.42;;;-1.60;99.90;;;;;;5000616;28;20049;-67
2021/12/23 00:32:36;;;;;;;25.92;16.80;;;-1.50;99.90;;;;;;4999971;28;20072;-66
2021/12/23 00:35:03;;;;;;;29.65;18.17;;;-1.50;99.90;;;;;;5017124;28;20466;-66
2021/12/23 00:37:36;;;;;;;27.63;17.25;;;-1.40;99.90;;;;;;5000669;28;20049;-66
2021/12/23 00:40:03;;;;;;;26.73;17.80;;;-1.40;99.90;;;;;;5000727;28;20462;-66
2021/12/23 00:42:31;;;;;;;27.20;17.73;;;-1.40;99.90;;;;;;5017644;28;20068;-67
2021/12/23 00:44:56;;;;;;;26.27;17.23;;;-1.40;99.90;;;;;;5018295;28;20066;-68
2021/12/23 00:47:22;;;;;;;26.88;16.63;;;-1.40;99.90;;;;;;5017771;28;20407;-67
2021/12/23 00:49:47;;;;;;;27.13;18.23;;;-1.30;99.90;;;;;;5000475;28;20057;-66
2021/12/23 00:52:16;;;;;;;29.58;17.98;;;-1.30;99.90;;;;;;5017565;28;20370;-66
2021/12/23 00:54:42;;;;;;;24.67;15.93;;;-1.30;99.90;;;;;;5017613;28;20085;-68
2021/12/23 00:57:08;;;;;;;26.30;17.55;;;-1.30;99.90;;;;;;5017824;28;20081;-68
2021/12/23 00:59:35;;;;;;;29.20;18.38;;;-1.30;99.90;;;;;;5016889;28;20377;-65
2021/12/23 01:02:03;;;;;;;28.23;17.58;;;-1.20;99.90;;;;;;5017151;28;20054;-66
2021/12/23 01:04:29;;;;;;;29.25;18.95;;;-1.20;99.90;;;;;;5017368;28;20038;-66
2021/12/23 01:06:54;;;;;;;27.35;17.75;;;-1.20;99.90;;;;;;5017472;28;20057;-67
2021/12/23 01:09:21;;;;;;;28.10;17.45;;;-1.20;99.90;;;;;;4999986;28;20381;-66
2021/12/23 01:11:49;;;;;;;31.08;19.50;;;-1.20;99.90;;;;;;5017171;28;20049;-65
2021/12/23 01:19:25;;;;;;;29.10;18.40;;;-1.10;99.90;;;;;;5017108;28;20054;-68
2021/12/23 01:21:51;;;;;;;30.30;18.73;;;-1.10;99.90;;;;;;5017166;28;20050;-68
2021/12/23 01:24:17;;;;;;;24.40;18.15;;;-1.10;99.90;;;;;;5016927;28;20096;-68
2021/12/23 01:26:42;;;;;;;29.67;18.92;;;-1.10;99.90;;;;;;5017132;28;20054;-67
2021/12/23 01:29:08;;;;;;;30.42;18.50;;;-1.00;99.90;;;;;;4999652;28;20057;-66
2021/12/23 01:31:39;;;;;;;32.28;19.13;;;-1.00;99.90;;;;;;4999733;28;20061;-67
2021/12/23 01:34:06;;;;;;;29.85;18.85;;;-1.00;99.90;;;;;;5017123;28;20362;-68
2021/12/23 01:36:32;;;;;;;27.48;18.10;;;-1.00;99.90;;;;;;5016635;28;20042;-66
2021/12/23 01:38:58;;;;;;;26.67;17.63;;;-1.00;99.90;;;;;;4999650;28;20108;-68
2021/12/23 01:41:25;;;;;;;29.52;18.77;;;-1.00;99.90;;;;;;4999346;28;20470;-67
2021/12/23 01:43:52;;;;;;;26.30;17.63;;;-0.90;99.90;;;;;;5016854;28;20319;-66
2021/12/23 01:46:19;;;;;;;25.90;17.65;;;-0.90;99.90;;;;;;4999315;28;20056;-68
2021/12/23 01:48:44;;;;;;;29.13;18.75;;;-0.70;99.90;;;;;;4999718;28;20364;-68
2021/12/23 01:51:10;;;;;;;29.85;17.98;;;-0.90;99.90;;;;;;4982963;28;20112;-67
2021/12/23 01:53:36;;;;;;;26.60;18.38;;;-0.80;99.90;;;;;;5016531;28;20406;-67
2021/12/23 01:56:02;;;;;;;27.13;19.30;;;-0.80;99.90;;;;;;4999139;28;20041;-66
2021/12/23 01:58:28;;;;;;;29.83;19.08;;;-0.90;99.90;;;;;;4999032;28;20042;-66
2021/12/23 02:00:54;;;;;;;31.42;20.20;;;-0.80;99.90;;;;;;5016184;28;20049;-67
2021/12/23 02:03:20;;;;;;;32.47;19.88;;;-0.80;99.90;;;;;;5016231;28;20044;-66
2021/12/23 02:05:46;;;;;;;39.75;21.08;;;-0.80;99.90;;;;;;5015726;28;20475;-67
2021/12/23 02:08:12;;;;;;;35.95;21.77;;;-0.80;99.90;;;;;;5015824;28;20038;-67
2021/12/23 02:10:40;;;;;;;34.45;20.42;;;-0.90;99.90;;;;;;5016449;28;20097;-66
2021/12/23 02:13:05;;;;;;;31.35;20.50;;;-0.90;99.90;;;;;;5015880;28;20053;-66
2021/12/23 02:15:31;;;;;;;34.20;20.10;;;-0.90;99.90;;;;;;5016024;28;20064;-68
2021/12/23 02:17:57;;;;;;;32.38;20.95;;;-0.80;99.90;;;;;;4999086;28;20470;-66
2021/12/23 02:20:28;;;;;;;32.50;20.05;;;-0.30;99.90;;;;;;4998734;28;20373;-67
2021/12/23 02:22:54;;;;;;;34.92;21.90;;;-0.90;99.90;;;;;;4998757;28;20046;-68
2021/12/23 02:25:20;;;;;;;34.60;20.55;;;-0.80;99.90;;;;;;5015783;28;20060;-67
2021/12/23 02:27:46;;;;;;;29.88;20.48;;;-0.80;99.90;;;;;;5015473;28;20038;-66
2021/12/23 02:30:17;;;;;;;35.58;21.25;;;-0.90;99.90;;;;;;4981638;28;20524;-67
2021/12/23 02:32:43;;;;;;;32.90;21.25;;;-0.80;99.90;;;;;;5015673;28;20046;-68
2021/12/23 02:35:13;;;;;;;30.58;20.02;;;-0.80;99.90;;;;;;4998938;28;20050;-66
2021/12/23 02:37:40;;;;;;;34.00;20.23;;;-0.30;99.90;;;;;;5015739;28;20050;-68
2021/12/23 02:40:07;;;;;;;31.80;20.52;;;-0.90;99.90;;;;;;5015780;28;20050;-68
2021/12/23 02:42:33;;;;;;;32.83;20.58;;;-0.80;99.90;;;;;;4998310;28;20058;-66
2021/12/23 02:44:58;;;;;;;31.98;19.58;;;-0.80;99.90;;;;;;5015941;28;20104;-68
2021/12/23 02:47:24;;;;;;;32.85;20.98;;;-0.80;99.90;;;;;;5015224;28;20452;-68
2021/12/23 02:49:50;;;;;;;33.45;20.55;;;-0.80;99.90;;;;;;5015388;28;20377;-68
2021/12/23 02:52:16;;;;;;;33.25;20.35;;;-0.80;99.90;;;;;;5015260;28;20134;-68
2021/12/23 02:54:41;;;;;;;34.15;20.65;;;-0.80;99.90;;;;;;4998033;28;20060;-68
2021/12/23 02:57:07;;;;;;;32.30;21.23;;;-0.80;99.90;;;;;;4981544;28;20053;-66
2021/12/23 02:59:33;;;;;;;33.72;20.83;;;-0.80;99.90;;;;;;5015295;28;20370;-66
2021/12/23 03:02:00;;;;;;;29.73;19.33;;;-0.80;99.90;;;;;;5015112;28;20346;-67
2021/12/23 03:04:26;;;;;;;30.13;20.10;;;-0.70;99.90;;;;;;5015735;28;20085;-67
2021/12/23 03:06:56;;;;;;;30.05;20.35;;;-0.70;99.90;;;;;;4998329;28;20076;-68
2021/12/23 03:09:21;;;;;;;31.38;20.65;;;-0.60;99.90;;;;;;5015304;28;20052;-66
2021/12/23 03:11:47;;;;;;;33.65;21.05;;;-0.70;99.90;;;;;;4981857;28;20045;-68
2021/12/23 03:14:14;;;;;;;28.35;19.50;;;-0.70;99.90;;;;;;5013021;28;20050;-66
2021/12/23 03:16:39;;;;;;;33.78;21.23;;;-0.70;99.90;;;;;;5015154;28;20092;-67
2021/12/23 03:19:06;;;;;;;33.78;20.88;;;-0.70;99.90;;;;;;5015497;28;20150;-67
2021/12/23 03:21:33;;;;;;;30.05;20.35;;;-0.70;99.90;;;;;;5014611;28;20049;-68
2021/12/23 03:23:58;;;;;;;31.17;18.65;;;-0.70;99.90;;;;;;5013879;28;20085;-67
2021/12/23 03:26:24;;;;;;;31.67;19.77;;;-0.70;99.90;;;;;;5015107;28;20402;-67
2021/12/23 03:28:50;;;;;;;31.35;19.65;;;-0.70;99.90;;;;;;5013924;28;20050;-67
2021/12/23 03:31:16;;;;;;;32.03;20.00;;;-0.70;99.90;;;;;;5014987;28;20041;-67
2021/12/23 03:33:42;;;;;;;34.78;21.02;;;-0.70;99.90;;;;;;5015356;28;20111;-66
2021/12/23 03:36:08;;;;;;;29.55;19.23;;;-0.70;99.90;;;;;;5015382;28;20046;-68
2021/12/23 03:38:33;;;;;;;33.45;20.63;;;-0.60;99.90;;;;;;5014365;28;20433;-67
2021/12/23 03:40:59;;;;;;;32.53;20.08;;;-0.60;99.90;;;;;;5015141;28;20042;-67
2021/12/23 03:43:26;;;;;;;32.38;20.55;;;-0.60;99.90;;;;;;5015004;28;20041;-67
2021/12/23 03:45:52;;;;;;;29.58;20.20;;;-0.60;99.90;;;;;;5015153;28;20053;-68
2021/12/23 03:48:18;;;;;;;30.45;19.80;;;-0.60;99.90;;;;;;5014442;28;20115;-67
2021/12/23 03:50:45;;;;;;;31.38;19.30;;;-0.60;99.90;;;;;;5014239;28;20057;-68
2021/12/23 03:53:10;;;;;;;31.23;19.98;;;-0.60;99.90;;;;;;5013591;28;20424;-67
2021/12/23 03:55:36;;;;;;;35.50;21.05;;;-0.40;99.90;;;;;;5014815;28;20046;-68
2021/12/23 03:58:02;;;;;;;32.33;19.63;;;-0.50;99.90;;;;;;4996734;28;20104;-68
2021/12/23 04:00:28;;;;;;;31.92;20.42;;;-0.50;99.90;;;;;;5014717;28;20050;-67
2021/12/23 04:02:55;;;;;;;32.28;20.27;;;-0.50;99.90;;;;;;4997531;28;20053;-66
2021/12/23 04:05:21;;;;;;;31.52;20.15;;;-0.50;99.90;;;;;;5014168;28;20064;-67
2021/12/23 04:07:46;;;;;;;29.27;19.73;;;-0.50;99.90;;;;;;5015199;28;20081;-68
2021/12/23 04:10:16;;;;;;;31.33;20.17;;;-0.40;99.90;;;;;;5017988;28;20058;-68
2021/12/23 04:12:42;;;;;;;34.22;20.77;;;-0.50;99.90;;;;;;5017153;28;20123;-66
2021/12/23 04:15:09;;;;;;;29.17;19.90;;;-0.50;99.90;;;;;;5018861;28;20104;-67
2021/12/23 04:17:34;;;;;;;33.08;21.02;;;-0.50;99.90;;;;;;5017224;28;20052;-68
2021/12/23 04:20:13;;;;;;;32.45;19.92;;;-0.50;99.90;;;;;;5018207;28;20045;-67
2021/12/23 04:22:40;;;;;;;38.22;20.33;;;-0.50;99.90;;;;;;5017927;28;20076;-66
2021/12/23 04:25:06;;;;;;;31.23;20.40;;;-0.50;99.90;;;;;;5017293;28;20065;-67
2021/12/23 04:27:32;;;;;;;38.13;22.13;;;-0.50;99.90;;;;;;5017467;28;20034;-67
2021/12/23 04:29:57;;;;;;;30.45;20.10;;;-0.40;99.90;;;;;;5017100;28;20440;-69
2021/12/23 04:32:23;;;;;;;31.17;19.27;;;-0.40;99.90;;;;;;5018273;28;20054;-67
2021/12/23 04:34:48;;;;;;;36.80;20.13;;;0.00;99.90;;;;;;5017645;28;20049;-67
2021/12/23 04:37:14;;;;;;;34.13;20.73;;;-0.40;99.90;;;;;;5017032;28;20065;-66
2021/12/23 04:39:40;;;;;;;31.00;20.13;;;-0.40;99.90;;;;;;5017561;28;20129;-66
2021/12/23 04:42:06;;;;;;;32.15;20.60;;;-0.10;99.90;;;;;;5017786;28;20053;-68
2021/12/23 04:44:32;;;;;;;28.83;19.85;;;-0.40;99.90;;;;;;5018025;28;20357;-66
2021/12/23 04:46:57;;;;;;;31.30;20.10;;;-0.40;99.90;;;;;;5018114;28;20100;-68
2021/12/23 04:49:23;;;;;;;35.92;21.58;;;-0.40;99.90;;;;;;5000492;28;20057;-68
2021/12/23 04:51:49;;;;;;;30.65;19.63;;;-0.40;99.90;;;;;;5017489;28;20049;-68
2021/12/23 04:54:15;;;;;;;32.67;19.88;;;-0.20;99.90;;;;;;5016455;28;20120;-66
2021/12/23 04:56:40;;;;;;;30.02;19.60;;;-0.40;99.90;;;;;;5016470;28;20081;-66
2021/12/23 04:59:06;;;;;;;30.02;19.63;;;-0.40;99.90;;;;;;5017365;28;20057;-66
2021/12/23 05:01:32;;;;;;;35.10;20.85;;;-0.30;99.90;;;;;;5017580;28;20057;-67
2021/12/23 05:03:58;;;;;;;33.78;21.40;;;0.20;99.90;;;;;;5016751;28;20041;-67
2021/12/23 05:06:24;;;;;;;30.95;19.67;;;-0.40;99.90;;;;;;5016397;28;20115;-66
2021/12/23 05:08:50;;;;;;;29.50;21.35;;;-0.40;99.90;;;;;;5017054;28;20046;-66
2021/12/23 05:11:16;;;;;;;31.63;20.92;;;-0.30;99.90;;;;;;5016287;28;20553;-67
2021/12/23 05:13:42;;;;;;;29.73;19.23;;;-0.30;99.90;;;;;;5016829;28;20057;-66
2021/12/23 05:16:08;;;;;;;29.33;19.88;;;-0.30;99.90;;;;;;5016846;28;20125;-66
2021/12/23 05:18:33;;;;;;;36.53;21.45;;;-0.30;99.90;;;;;;5010930;28;20113;-68
2021/12/23 05:20:59;;;;;;;35.45;22.20;;;-0.30;99.90;;;;;;4999422;28;20046;-67
2021/12/23 05:23:25;;;;;;;29.42;19.40;;;-0.30;99.90;;;;;;4990628;28;20038;-66
2021/12/23 05:25:51;;;;;;;32.13;19.73;;;-0.30;99.90;;;;;;5015895;28;20046;-67
2021/12/23 05:28:16;;;;;;;33.80;20.58;;;-0.30;99.90;;;;;;4983071;28;20165;-67
2021/12/23 05:30:42;;;;;;;31.35;20.02;;;-0.30;99.90;;;;;;5016669;28;20056;-68
2021/12/23 05:33:08;;;;;;;33.33;19.67;;;-0.30;99.90;;;;;;5017245;28;20057;-66
2021/12/23 05:35:33;;;;;;;32.38;20.58;;;-0.30;99.90;;;;;;5011249;28;20073;-68
2021/12/23 05:37:59;;;;;;;33.65;21.10;;;-0.20;99.90;;;;;;4999263;28;20053;-67
2021/12/23 05:40:28;;;;;;;30.13;20.50;;;0.40;99.90;;;;;;5012059;28;20046;-67
2021/12/23 05:42:55;;;;;;;32.72;20.30;;;-0.20;99.90;;;;;;4979886;28;20484;-68
2021/12/23 05:45:21;;;;;;;29.67;19.80;;;-0.20;99.90;;;;;;4995838;28;20046;-67
2021/12/23 05:47:48;;;;;;;38.47;20.90;;;-0.20;99.90;;;;;;5016453;28;20058;-66
2021/12/23 05:50:17;;;;;;;32.35;20.40;;;-0.20;99.90;;;;;;4999825;28;20050;-68
2021/12/23 05:52:43;;;;;;;30.85;20.83;;;-0.20;99.90;;;;;;5011503;28;20054;-67
2021/12/23 05:55:10;;;;;;;34.30;20.50;;;-0.20;99.90;;;;;;4999701;28;20050;-68
2021/12/23 05:57:37;;;;;;;29.65;20.10;;;-0.20;99.90;;;;;;5010000;28;20101;-67
2021/12/23 06:00:18;;;;;;;36.58;21.55;;;-0.10;99.90;;;;;;4996536;28;20089;-68
2021/12/23 06:02:44;;;;;;;34.10;20.48;;;-0.10;99.90;;;;;;5002559;28;20053;-66
2021/12/23 06:05:10;;;;;;;32.97;20.88;;;-0.10;99.90;;;;;;5015718;28;20519;-68
2021/12/23 06:07:36;;;;;;;31.45;20.45;;;-0.10;99.90;;;;;;5015998;28;20168;-68
2021/12/23 06:10:03;;;;;;;33.05;19.90;;;-0.10;99.90;;;;;;5031457;28;20041;-67
2021/12/23 06:12:29;;;;;;;34.97;20.02;;;-0.10;99.90;;;;;;5015949;28;20057;-67
2021/12/23 06:14:54;;;;;;;33.28;20.98;;;-0.10;99.90;;;;;;5015642;28;20445;-68
2021/12/23 06:17:20;;;;;;;28.50;19.20;;;-0.10;99.90;;;;;;5015816;28;20063;-67
2021/12/23 06:19:45;;;;;;;30.23;20.80;;;-0.10;99.90;;;;;;5016354;28;20037;-68
2021/12/23 06:22:13;;;;;;;35.95;20.98;;;0.00;99.90;;;;;;5015946;28;20050;-67
2021/12/23 06:24:39;;;;;;;33.28;21.50;;;-0.10;99.90;;;;;;5016126;28;20139;-66
2021/12/23 06:27:05;;;;;;;31.10;19.50;;;-0.10;99.90;;;;;;5015662;28;20052;-67
2021/12/23 06:29:30;;;;;;;35.03;21.58;;;-0.10;99.90;;;;;;5015782;28;20046;-65
2021/12/23 06:31:56;;;;;;;30.80;20.00;;;-0.10;99.90;;;;;;4997658;28;20085;-66
2021/12/23 06:34:22;;;;;;;33.33;20.80;;;-0.10;99.90;;;;;;4995900;28;20038;-66
2021/12/23 06:36:47;;;;;;;33.80;21.65;;;-0.10;99.90;;;;;;5013189;28;20108;-66
2021/12/23 06:39:13;;;;;;;32.08;19.85;;;-0.10;99.90;;;;;;5013213;28;20054;-64
2021/12/23 06:41:39;;;;;;;28.25;18.60;;;-0.10;99.90;;;;;;5014137;28;20432;-66
2021/12/23 06:44:05;;;;;;;32.28;21.45;;;0.00;99.90;;;;;;5015076;28;20504;-66
2021/12/23 06:46:30;;;;;;;32.47;20.77;;;0.00;99.90;;;;;;5003623;28;20050;-65
2021/12/23 06:48:56;;;;;;;32.28;20.75;;;0.30;99.90;;;;;;4997046;28;20050;-66
2021/12/23 06:51:21;;;;;;;32.80;21.17;;;0.00;99.90;;;;;;4997159;28;20080;-66
2021/12/23 06:53:47;;;;;;;31.65;20.08;;;0.00;99.90;;;;;;4997637;28;20109;-67
2021/12/23 06:56:16;;;;;;;35.92;23.38;;;0.00;99.90;;;;;;5025971;28;20042;-65
2021/12/23 06:58:47;;;;;;;34.85;23.67;;;0.10;99.90;;;;;;4997927;28;20054;-66
2021/12/23 07:01:15;;;;;;;39.55;22.35;;;0.10;99.90;;;;;;5014993;28;20049;-66
2021/12/23 07:04:04;;;;;;;33.22;22.63;;;0.10;99.90;;;;;;5015146;28;20050;-66
2021/12/23 07:06:31;;;;;;;34.33;22.50;;;0.10;99.90;;;;;;5014429;28;20461;-66
2021/12/23 07:08:56;;;;;;;33.75;21.67;;;0.20;99.90;;;;;;4997537;28;20068;-64
2021/12/23 07:11:22;;;;;;;37.90;22.88;;;0.20;99.90;;;;;;4998926;28;20058;-65
2021/12/23 07:13:49;;;;;;;36.58;22.95;;;0.20;99.90;;;;;;5013169;28;20512;-65
2021/12/23 07:16:14;;;;;;;33.40;22.15;;;0.20;99.90;;;;;;4997298;28;20129;-66
2021/12/23 07:18:40;;;;;;;35.88;23.23;;;1.20;99.90;;;;;;4997266;28;20176;-65
2021/12/23 07:21:05;;;;;;;36.55;24.02;;;0.20;99.90;;;;;;4998236;28;20132;-67
2021/12/23 07:23:31;;;;;;;38.28;22.67;;;0.30;99.90;;;;;;4998242;28;20053;-67
2021/12/23 07:25:57;;;;;;;36.08;23.17;;;0.20;99.90;;;;;;5014491;28;20050;-67
2021/12/23 07:28:22;;;;;;;37.67;23.92;;;0.20;99.90;;;;;;5014683;28;20120;-66
2021/12/23 07:30:48;;;;;;;35.75;23.90;;;0.20;99.90;;;;;;4997551;28;20058;-67
2021/12/23 07:33:13;;;;;;;35.15;23.95;;;0.20;99.90;;;;;;4997405;28;20045;-65
2021/12/23 07:35:40;;;;;;;35.60;23.60;;;0.20;99.90;;;;;;5014335;28;20053;-67
2021/12/23 07:38:06;;;;;;;38.95;24.50;;;0.20;99.90;;;;;;4997354;28;20046;-66
2021/12/23 07:40:32;;;;;;;38.53;25.20;;;0.20;99.90;;;;;;4997154;28;20347;-67
2021/12/23 07:43:09;;;;;;;37.88;22.83;;;0.20;99.90;;;;;;5016015;28;20056;-68
2021/12/23 07:45:36;;;;;;;38.42;24.38;;;0.40;99.90;;;;;;5018649;28;20054;-67
2021/12/23 07:48:02;;;;;;;40.78;25.48;;;0.20;99.90;;;;;;4984868;28;20050;-67
2021/12/23 07:50:27;;;;;;;38.75;24.63;;;0.20;99.90;;;;;;5001586;28;20057;-66
2021/12/23 07:52:53;;;;;;;46.30;25.23;;;0.20;99.90;;;;;;5001026;28;20366;-68
2021/12/23 07:55:20;;;;;;;37.25;24.58;;;0.20;99.90;;;;;;5001067;28;20042;-65
2021/12/23 07:57:47;;;;;;;37.33;24.75;;;0.20;99.90;;;;;;5018247;28;20382;-67
2021/12/23 08:00:13;;;;;;;40.97;23.42;;;0.20;99.90;;;;;;5018241;28;20053;-67
2021/12/23 08:02:38;;;;;;;38.17;24.98;;;0.20;99.90;;;;;;5018028;28;20050;-65
2021/12/23 08:05:05;;;;;;;40.45;25.70;;;0.20;99.90;;;;;;5000445;28;20042;-66
2021/12/23 08:07:30;;;;;;;36.55;24.02;;;0.20;99.90;;;;;;5000394;28;20123;-66
2021/12/23 08:09:56;;;;;;;37.67;25.55;;;0.20;99.90;;;;;;5018034;28;20086;-65
2021/12/23 08:12:21;;;;;;;41.00;24.15;;;0.20;99.90;;;;;;5017772;28;20053;-67
2021/12/23 08:14:47;;;;;;;40.40;25.63;;;0.20;99.90;;;;;;5017663;28;20133;-65
2021/12/23 08:17:12;;;;;;;41.95;25.33;;;0.20;99.90;;;;;;5017650;28;20046;-67
2021/12/23 08:19:38;;;;;;;41.03;24.83;;;0.20;99.90;;;;;;5000248;28;20080;-67
2021/12/23 08:22:03;;;;;;;41.55;25.08;;;0.30;99.90;;;;;;5000543;28;20054;-67
2021/12/23 08:24:29;;;;;;;37.50;23.80;;;0.20;99.90;;;;;;5017603;28;20076;-65
2021/12/23 08:26:55;;;;;;;38.20;24.52;;;0.50;99.90;;;;;;5017598;28;20056;-66
2021/12/23 08:29:21;;;;;;;40.53;25.23;;;0.20;99.90;;;;;;5000338;28;20081;-66
2021/12/23 08:31:53;;;;;;;45.38;26.13;;;0.20;99.90;;;;;;4999781;28;20104;-67
2021/12/23 08:34:22;;;;;;;39.00;24.75;;;0.20;99.90;;;;;;5000206;28;20472;-65
2021/12/23 08:36:49;;;;;;;46.88;25.33;;;0.20;99.90;;;;;;5000483;28;20073;-66
2021/12/23 08:39:15;;;;;;;44.97;27.27;;;0.20;99.90;;;;;;5000433;28;20060;-67
2021/12/23 08:41:41;;;;;;;38.65;24.67;;;0.20;99.90;;;;;;5000381;28;20378;-65
2021/12/23 08:44:06;;;;;;;43.13;24.92;;;0.20;99.90;;;;;;5000112;28;20061;-66
2021/12/23 08:46:32;;;;;;;40.00;26.23;;;0.20;99.90;;;;;;4999870;28;20083;-67
2021/12/23 08:48:58;;;;;;;43.72;26.20;;;0.30;99.90;;;;;;5000044;28;20050;-65
2021/12/23 08:51:24;;;;;;;41.28;25.23;;;0.20;99.90;;;;;;5000477;28;20381;-66
2021/12/23 08:53:49;;;;;;;48.05;26.58;;;0.20;99.90;;;;;;5016647;28;20046;-67
2021/12/23 08:56:15;;;;;;;46.97;27.08;;;0.30;99.90;;;;;;4999630;28;20054;-66
2021/12/23 08:58:42;;;;;;;41.30;26.48;;;0.30;99.90;;;;;;5017105;28;20049;-65
2021/12/23 09:01:08;;;;;;;40.42;26.48;;;0.30;99.90;;;;;;4999221;28;20046;-66
2021/12/23 09:03:34;;;;;;;42.47;26.88;;;0.30;99.90;;;;;;5016166;28;20077;-67
2021/12/23 09:06:02;;;;;;;42.55;25.83;;;0.30;99.90;;;;;;4999565;28;20084;-65
2021/12/23 09:08:29;;;;;;;41.10;25.55;;;0.30;99.90;;;;;;5015104;28;20487;-65
2021/12/23 09:10:55;;;;;;;41.72;25.30;;;0.40;99.90;;;;;;4995808;28;20453;-65
2021/12/23 09:13:21;;;;;;;43.20;27.35;;;0.30;99.90;;;;;;5016381;28;20124;-67
2021/12/23 09:15:47;;;;;;;44.60;26.45;;;0.40;99.90;;;;;;5016777;28;20053;-66
2021/12/23 09:18:13;;;;;;;42.45;25.80;;;0.40;99.90;;;;;;5015262;28;20057;-67
2021/12/23 09:20:38;;;;;;;43.35;26.35;;;0.40;99.90;;;;;;4996668;28;20141;-67
2021/12/23 09:23:07;;;;;;;41.58;26.30;;;0.40;99.90;;;;;;4998207;28;20117;-65
2021/12/23 09:25:33;;;;;;;45.35;28.67;;;0.40;99.90;;;;;;4999619;28;20521;-66
2021/12/23 09:28:10;;;;;;;44.33;27.27;;;0.40;99.90;;;;;;5016160;28;20397;-67
2021/12/23 09:33:21;;;;;;;44.42;27.83;;;0.40;99.90;;;;;;5016511;28;20049;-65
2021/12/23 09:35:47;;;;;;;46.15;29.55;;;0.50;99.90;;;;;;4999160;28;20050;-67
2021/12/23 09:38:15;;;;;;;46.08;28.33;;;0.50;99.90;;;;;;4998723;28;20069;-67
2021/12/23 09:40:42;;;;;;;43.30;28.42;;;0.50;99.90;;;;;;4999158;28;20064;-67
2021/12/23 09:43:11;;;;;;;45.60;29.15;;;0.50;99.90;;;;;;5016409;28;20438;-67
2021/12/23 09:45:38;;;;;;;49.47;30.73;;;0.50;99.90;;;;;;5016259;28;20053;-67
2021/12/23 09:48:04;;;;;;;45.90;29.13;;;0.50;99.90;;;;;;5016533;28;20061;-65
2021/12/23 09:50:34;;;;;;;47.38;28.83;;;0.60;99.90;;;;;;5015989;28;20046;-66
2021/12/23 09:53:03;;;;;;;50.85;31.00;;;0.60;99.90;;;;;;4996817;28;20128;-66
2021/12/23 09:55:29;;;;;;;56.45;33.22;;;0.60;99.90;;;;;;5015976;28;20050;-65
2021/12/23 09:57:57;;;;;;;53.67;32.00;;;0.60;99.90;;;;;;4999220;28;20099;-67
2021/12/23 10:00:31;;;;;;;56.67;32.85;;;0.60;99.90;;;;;;4999056;28;20058;-67
2021/12/23 10:02:57;;;;;;;;;;;1.00;99.90;;;;;;4983203;28;20057;-66
2021/12/23 10:05:25;;;;;;;55.03;31.90;;;0.60;99.90;;;;;;5015551;28;19932;-66
2021/12/23 10:07:54;;;;;;;59.58;32.97;;;0.60;99.90;;;;;;5016335;28;20457;-65
2021/12/23 10:10:29;;;;;;;62.05;34.30;;;0.60;99.90;;;;;;5015762;28;20053;-68
2021/12/23 10:13:17;;;;;;;63.47;34.53;;;0.70;99.90;;;;;;5015951;28;20050;-68
2021/12/23 10:38:10;;;;;;;64.35;34.70;;;0.80;99.90;;;;;;5015252;28;20065;-67
2021/12/23 10:40:39;;;;;;;64.85;36.28;;;0.90;99.90;;;;;;5014909;28;20508;-67
2021/12/23 10:43:08;;;;;;;67.68;35.30;;;0.90;99.90;;;;;;5015046;28;20365;-68
2021/12/23 10:45:53;;;;;;;65.72;35.47;;;0.90;99.90;;;;;;5014861;28;20498;-67
2021/12/23 10:48:19;;;;;;;69.85;36.25;;;0.80;99.90;;;;;;5014974;28;20050;-68
2021/12/23 10:50:49;;;;;;;71.30;37.10;;;0.90;99.90;;;;;;5012504;28;20116;-67
2021/12/23 10:53:30;;;;;;;70.60;35.95;;;0.90;99.90;;;;;;5014431;28;20064;-68
2021/12/23 10:59:06;;;;;;;66.65;35.78;;;0.90;99.90;;;;;;5014854;28;20061;-67
2021/12/23 11:01:33;;;;;;;70.50;36.15;;;0.90;99.90;;;;;;5014945;28;20243;-69
2021/12/23 11:04:05;;;;;;;73.30;37.83;;;0.90;99.90;;;;;;4997463;28;20059;-68
2021/12/23 11:06:40;;;;;;;75.35;38.25;;;0.90;99.90;;;;;;4996659;28;20125;-67
2021/12/23 11:09:24;;;;;;;75.38;38.40;;;0.90;99.90;;;;;;4996765;28;20373;-66
2021/12/23 11:39:44;;;;;;;81.47;39.80;;;0.90;99.90;;;;;;5012722;28;20062;-70
2021/12/23 11:42:18;;;;;;;80.32;38.78;;;0.90;99.90;;;;;;5013388;28;20121;-68
2021/12/23 11:44:44;;;;;;;79.38;40.20;;;0.90;99.90;;;;;;4995246;28;20054;-68
2021/12/23 11:47:13;;;;;;;88.82;40.78;;;0.90;99.90;;;;;;4996908;28;20476;-66
2021/12/23 11:49:43;;;;;;;79.55;38.47;;;0.90;99.90;;;;;;5013003;28;20473;-68
2021/12/23 11:52:09;;;;;;;91.07;41.00;;;0.90;99.90;;;;;;5010786;28;20125;-69
2021/12/23 11:54:38;;;;;;;85.47;40.25;;;0.90;99.90;;;;;;4996569;28;20054;-66
2021/12/23 11:57:13;;;;;;;86.45;39.67;;;0.90;99.90;;;;;;4993409;28;20042;-68
2021/12/23 11:59:41;;;;;;;95.88;41.83;;;1.00;99.90;;;;;;4994262;28;20108;-68
2021/12/23 12:02:20;;;;;;;92.03;40.67;;;0.90;99.90;;;;;;5013774;28;20054;-69
2021/12/23 12:04:47;;;;;;;84.80;40.10;;;0.90;99.90;;;;;;4994906;28;20072;-67
2021/12/23 12:07:19;;;;;;;77.80;39.83;;;0.90;99.90;;;;;;4997029;28;20046;-67
2021/12/23 12:10:00;;;;;;;74.45;38.55;;;0.90;99.90;;;;;;5013323;28;20463;-66
2021/12/23 12:12:30;;;;;;;85.45;39.00;;;0.90;99.90;;;;;;5013997;28;20262;-66
2021/12/23 12:14:56;;;;;;;79.38;39.30;;;1.00;99.90;;;;;;4993952;28;20053;-67
2021/12/23 12:17:25;;;;;;;83.22;40.63;;;1.00;99.90;;;;;;5014059;28;20053;-66
2021/12/23 12:19:55;;;;;;;78.95;38.58;;;1.00;99.90;;;;;;4992255;28;20058;-67
2021/12/23 12:22:48;;;;;;;86.72;39.58;;;1.00;99.90;;;;;;4995633;28;20125;-69
2021/12/23 12:25:26;;;;;;;83.80;38.55;;;1.00;99.90;;;;;;4993874;28;20077;-67
2021/12/23 12:28:18;;;;;;;86.93;40.20;;;1.00;99.90;;;;;;5010813;28;20061;-66
2021/12/23 12:31:02;;;;;;;83.93;40.72;;;1.00;99.90;;;;;;5015741;28;20061;-68
2021/12/23 12:33:27;;;;;;;86.97;40.00;;;1.10;99.90;;;;;;4997699;28;20120;-68
2021/12/23 12:36:02;;;;;;;80.72;39.75;;;1.10;99.90;;;;;;5017197;28;20115;-65
2021/12/23 12:38:31;;;;;;;87.05;40.35;;;1.10;99.90;;;;;;5017671;28;20060;-66
2021/12/23 12:41:18;;;;;;;92.55;41.42;;;1.10;99.90;;;;;;4999402;28;20057;-67
2021/12/23 12:43:47;;;;;;;86.63;39.25;;;1.10;99.90;;;;;;5022532;28;20050;-68
2021/12/23 12:46:45;;;;;;;92.25;40.20;;;1.10;99.90;;;;;;4999907;28;20054;-68
2021/12/23 12:49:15;;;;;;;82.90;39.53;;;1.20;99.90;;;;;;4999382;28;20124;-65
2021/12/23 12:51:45;;;;;;;91.18;40.63;;;1.20;99.90;;;;;;4999727;28;20068;-68
2021/12/23 12:54:19;;;;;;;81.45;40.50;;;1.20;99.90;;;;;;4999884;28;20060;-69
2021/12/23 12:56:49;;;;;;;;;;;1.20;99.90;;;;;;5000853;28;20081;-66
2021/12/23 12:59:17;;;;;;;80.78;38.17;;;1.20;99.90;;;;;;5016653;28;20012;-68
2021/12/23 13:01:48;;;;;;;88.35;40.10;;;1.20;99.90;;;;;;5013191;28;20042;-67
2021/12/23 13:04:34;;;;;;;92.50;37.88;;;1.20;99.90;;;;;;4998946;28;20046;-66
2021/12/23 13:07:18;;;;;;;85.38;39.65;;;1.20;99.90;;;;;;5016382;28;20041;-68
2021/12/23 13:10:07;;;;;;;85.93;39.03;;;1.20;99.90;;;;;;5016831;28;20112;-67
2021/12/23 13:12:45;;;;;;;87.55;39.05;;;1.20;99.90;;;;;;5000033;28;20054;-67
2021/12/23 13:15:16;;;;;;;88.63;38.58;;;1.30;99.90;;;;;;5015609;28;20089;-69
2021/12/23 13:18:03;;;;;;;85.88;39.33;;;1.30;99.90;;;;;;5016211;28;20046;-68
2021/12/23 13:21:06;;;;;;;82.05;38.35;;;1.30;99.90;;;;;;5016675;28;20056;-69
2021/12/23 13:23:43;;;;;;;85.25;39.50;;;1.30;99.90;;;;;;5016533;28;20155;-69
2021/12/23 13:26:17;;;;;;;82.47;36.70;;;1.30;99.90;;;;;;5016475;28;20073;-69
2021/12/23 13:28:46;;;;;;;80.30;37.53;;;1.30;99.90;;;;;;5015196;28;20056;-68
2021/12/23 13:31:18;;;;;;;81.28;37.13;;;1.30;99.90;;;;;;5016150;28;20104;-68
2021/12/23 13:33:45;;;;;;;85.35;39.38;;;1.30;99.90;;;;;;5016282;28;20096;-67
2021/12/23 13:36:20;;;;;;;86.30;38.47;;;1.30;99.90;;;;;;5015569;28;20049;-67
2021/12/23 13:38:46;;;;;;;80.50;36.90;;;1.30;99.90;;;;;;5012945;28;20092;-68
2021/12/23 13:41:20;;;;;;;79.32;37.05;;;1.30;99.90;;;;;;5013856;28;20470;-67
2021/12/23 13:43:45;;;;;;;87.88;37.97;;;1.30;99.90;;;;;;5014763;28;20076;-70
2021/12/23 13:46:13;;;;;;;78.25;38.72;;;1.60;99.90;;;;;;5015720;28;20462;-69